sensor_id;sensor_type;location;lat;lon;timestamp;pressure;altitude;pressure_sealevel;temperature;humidity
24620;BME280;12763;55.802;37.404;2023-06-14T00:00:43;99876.16;;;18.41;51.34
24620;BME280;12763;55.802;37.404;2023-06-14T00:03:10;99872.50;;;18.40;51.46
24620;BME280;12763;55.802;37.404;2023-06-14T00:05:37;99877.53;;;18.38;51.62
24620;BME280;12763;55.802;37.404;2023-06-14T00:08:09;99872.47;;;18.35;51.67
24620;BME280;12763;55.802;37.404;2023-06-14T00:10:36;99868.81;;;18.35;51.63
24620;BME280;12763;55.802;37.404;2023-06-14T00:13:03;99870.75;;;18.34;51.59
24620;BME280;12763;55.802;37.404;2023-06-14T00:15:33;99871.38;;;18.36;51.71
24620;BME280;12763;55.802;37.404;2023-06-14T00:18:00;99871.03;;;18.33;51.65
24620;BME280;12763;55.802;37.404;2023-06-14T00:20:31;99863.44;;;18.28;51.96
24620;BME280;12763;55.802;37.404;2023-06-14T00:22:59;99872.34;;;18.25;52.21
24620;BME280;12763;55.802;37.404;2023-06-14T00:25:26;99863.34;;;18.23;51.88
24620;BME280;12763;55.802;37.404;2023-06-14T00:27:56;99871.75;;;18.23;52.30
24620;BME280;12763;55.802;37.404;2023-06-14T00:30:22;99874.22;;;18.19;52.29
24620;BME280;12763;55.802;37.404;2023-06-14T00:32:48;99877.28;;;18.18;52.39
24620;BME280;12763;55.802;37.404;2023-06-14T00:35:17;99876.69;;;18.16;52.49
24620;BME280;12763;55.802;37.404;2023-06-14T00:37:43;99881.69;;;18.14;52.40
24620;BME280;12763;55.802;37.404;2023-06-14T00:40:10;99881.09;;;18.12;52.39
24620;BME280;12763;55.802;37.404;2023-06-14T00:42:37;99879.66;;;18.09;52.62
24620;BME280;12763;55.802;37.404;2023-06-14T00:45:03;99875.44;;;18.07;52.78
24620;BME280;12763;55.802;37.404;2023-06-14T00:47:32;99875.09;;;18.03;53.21
24620;BME280;12763;55.802;37.404;2023-06-14T00:49:58;99880.63;;;17.98;53.52
24620;BME280;12763;55.802;37.404;2023-06-14T00:52:26;99880.91;;;17.97;53.54
24620;BME280;12763;55.802;37.404;2023-06-14T00:54:52;99880.06;;;17.96;53.64
24620;BME280;12763;55.802;37.404;2023-06-14T00:57:18;99876.41;;;17.96;53.43
24620;BME280;12763;55.802;37.404;2023-06-14T00:59:48;99874.75;;;17.95;53.65
24620;BME280;12763;55.802;37.404;2023-06-14T01:02:16;99880.00;;;17.91;53.78
24620;BME280;12763;55.802;37.404;2023-06-14T01:04:44;99875.25;;;17.92;53.86
24620;BME280;12763;55.802;37.404;2023-06-14T01:10:35;99867.47;;;17.94;54.45
24620;BME280;12763;55.802;37.404;2023-06-14T01:13:20;99866.63;;;17.93;54.06
24620;BME280;12763;55.802;37.404;2023-06-14T01:15:47;99870.44;;;17.87;53.70
24620;BME280;12763;55.802;37.404;2023-06-14T01:18:13;99872.91;;;17.84;54.23
24620;BME280;12763;55.802;37.404;2023-06-14T01:20:45;99877.94;;;17.87;54.07
24620;BME280;12763;55.802;37.404;2023-06-14T01:23:12;99872.66;;;17.85;54.25
24620;BME280;12763;55.802;37.404;2023-06-14T01:25:38;99874.78;;;17.78;54.48
24620;BME280;12763;55.802;37.404;2023-06-14T01:28:06;99869.00;;;17.85;54.46
24620;BME280;12763;55.802;37.404;2023-06-14T01:30:40;99874.25;;;17.81;54.77
24620;BME280;12763;55.802;37.404;2023-06-14T01:33:16;99870.13;;;17.84;54.96
24620;BME280;12763;55.802;37.404;2023-06-14T01:35:50;99872.31;;;17.82;54.86
24620;BME280;12763;55.802;37.404;2023-06-14T01:38:22;99871.72;;;17.80;55.52
24620;BME280;12763;55.802;37.404;2023-06-14T01:40:49;99874.78;;;17.78;55.33
24620;BME280;12763;55.802;37.404;2023-06-14T01:43:18;99879.81;;;17.81;55.67
24620;BME280;12763;55.802;37.404;2023-06-14T01:45:45;99885.41;;;17.81;56.03
24620;BME280;12763;55.802;37.404;2023-06-14T01:48:12;99881.56;;;17.66;56.94
24620;BME280;12763;55.802;37.404;2023-06-14T01:50:39;99878.84;;;17.71;57.06
24620;BME280;12763;55.802;37.404;2023-06-14T01:53:09;99882.56;;;17.76;57.49
24620;BME280;12763;55.802;37.404;2023-06-14T01:55:37;99875.59;;;17.79;57.04
24620;BME280;12763;55.802;37.404;2023-06-14T01:58:06;99878.66;;;17.77;57.19
24620;BME280;12763;55.802;37.404;2023-06-14T02:00:33;99882.81;;;17.75;57.42
24620;BME280;12763;55.802;37.404;2023-06-14T02:02:59;99883.47;;;17.82;57.24
24620;BME280;12763;55.802;37.404;2023-06-14T02:05:26;99880.50;;;17.88;57.25
24620;BME280;12763;55.802;37.404;2023-06-14T02:07:54;99877.44;;;17.90;57.55
24620;BME280;12763;55.802;37.404;2023-06-14T02:10:21;99873.22;;;17.87;57.50
24620;BME280;12763;55.802;37.404;2023-06-14T02:12:48;99875.44;;;17.85;57.94
24620;BME280;12763;55.802;37.404;2023-06-14T02:15:16;99876.72;;;17.78;58.49
24620;BME280;12763;55.802;37.404;2023-06-14T02:17:45;99879.53;;;17.78;58.89
24620;BME280;12763;55.802;37.404;2023-06-14T02:20:13;99875.59;;;17.79;58.92
24620;BME280;12763;55.802;37.404;2023-06-14T02:22:40;99881.53;;;17.82;58.82
24620;BME280;12763;55.802;37.404;2023-06-14T02:25:07;99885.09;;;17.78;59.00
24620;BME280;12763;55.802;37.404;2023-06-14T02:27:34;99873.59;;;17.74;59.18
24620;BME280;12763;55.802;37.404;2023-06-14T02:30:03;99875.44;;;17.85;59.03
24620;BME280;12763;55.802;37.404;2023-06-14T02:32:33;99886.16;;;17.93;58.85
24620;BME280;12763;55.802;37.404;2023-06-14T02:35:02;99879.72;;;17.93;58.78
24620;BME280;12763;55.802;37.404;2023-06-14T02:37:32;99882.00;;;17.96;58.72
24620;BME280;12763;55.802;37.404;2023-06-14T02:39:58;99878.81;;;17.87;59.34
24620;BME280;12763;55.802;37.404;2023-06-14T02:42:25;99890.13;;;17.97;59.20
24620;BME280;12763;55.802;37.404;2023-06-14T02:44:51;99889.00;;;17.98;58.94
24620;BME280;12763;55.802;37.404;2023-06-14T02:47:18;99890.38;;;17.96;59.53
24620;BME280;12763;55.802;37.404;2023-06-14T02:49:45;99897.91;;;17.95;59.97
24620;BME280;12763;55.802;37.404;2023-06-14T02:52:15;99892.66;;;17.99;59.76
24620;BME280;12763;55.802;37.404;2023-06-14T02:54:42;99895.50;;;18.04;59.55
24620;BME280;12763;55.802;37.404;2023-06-14T02:57:09;99895.44;;;17.99;59.82
24620;BME280;12763;55.802;37.404;2023-06-14T02:59:37;99904.22;;;18.07;59.54
24620;BME280;12763;55.802;37.404;2023-06-14T03:02:06;99904.09;;;18.19;59.60
24620;BME280;12763;55.802;37.404;2023-06-14T03:04:33;99901.09;;;18.26;59.08
24620;BME280;12763;55.802;37.404;2023-06-14T03:07:04;99909.22;;;18.27;59.22
24620;BME280;12763;55.802;37.404;2023-06-14T03:09:48;99909.69;;;18.41;58.87
24620;BME280;12763;55.802;37.404;2023-06-14T03:12:15;99902.84;;;18.32;59.34
24620;BME280;12763;55.802;37.404;2023-06-14T03:14:41;99896.22;;;18.38;59.15
24620;BME280;12763;55.802;37.404;2023-06-14T03:17:08;99900.59;;;18.50;58.76
24620;BME280;12763;55.802;37.404;2023-06-14T03:19:38;99900.16;;;18.58;58.63
24620;BME280;12763;55.802;37.404;2023-06-14T03:22:04;99901.88;;;18.64;58.92
24620;BME280;12763;55.802;37.404;2023-06-14T03:24:32;99904.75;;;18.69;58.76
24620;BME280;12763;55.802;37.404;2023-06-14T03:27:03;99898.78;;;18.61;59.74
24620;BME280;12763;55.802;37.404;2023-06-14T03:29:29;99906.47;;;18.75;58.81
24620;BME280;12763;55.802;37.404;2023-06-14T03:32:00;99896.38;;;18.69;59.96
24620;BME280;12763;55.802;37.404;2023-06-14T03:34:34;99900.41;;;18.84;59.21
24620;BME280;12763;55.802;37.404;2023-06-14T03:37:01;99906.66;;;18.91;59.22
24620;BME280;12763;55.802;37.404;2023-06-14T03:39:27;99908.19;;;19.08;58.84
24620;BME280;12763;55.802;37.404;2023-06-14T03:41:54;99905.72;;;19.12;58.59
24620;BME280;12763;55.802;37.404;2023-06-14T03:44:21;99894.28;;;19.13;58.70
24620;BME280;12763;55.802;37.404;2023-06-14T03:46:47;99903.56;;;19.19;58.20
24620;BME280;12763;55.802;37.404;2023-06-14T03:49:13;99889.09;;;19.27;58.12
24620;BME280;12763;55.802;37.404;2023-06-14T03:51:39;99893.63;;;19.33;58.04
24620;BME280;12763;55.802;37.404;2023-06-14T03:54:06;99886.88;;;19.29;58.49
24620;BME280;12763;55.802;37.404;2023-06-14T03:56:33;99886.81;;;19.24;58.23
24620;BME280;12763;55.802;37.404;2023-06-14T03:58:59;99891.19;;;19.42;58.00
24620;BME280;12763;55.802;37.404;2023-06-14T04:01:28;99894.34;;;19.50;58.09
24620;BME280;12763;55.802;37.404;2023-06-14T04:03:58;99889.38;;;19.57;57.52
24620;BME280;12763;55.802;37.404;2023-06-14T04:06:25;99895.03;;;19.67;57.25
24620;BME280;12763;55.802;37.404;2023-06-14T04:08:59;99895.94;;;19.78;57.02
24620;BME280;12763;55.802;37.404;2023-06-14T04:11:29;99895.66;;;19.74;57.23
24620;BME280;12763;55.802;37.404;2023-06-14T04:13:55;99899.59;;;19.83;56.93
24620;BME280;12763;55.802;37.404;2023-06-14T04:16:23;99896.97;;;20.09;56.05
24620;BME280;12763;55.802;37.404;2023-06-14T04:18:49;99896.69;;;20.10;55.97
24620;BME280;12763;55.802;37.404;2023-06-14T04:21:18;99895.31;;;20.18;55.28
24620;BME280;12763;55.802;37.404;2023-06-14T04:23:45;99892.25;;;20.19;55.00
24620;BME280;12763;55.802;37.404;2023-06-14T04:26:13;99898.19;;;20.28;54.28
24620;BME280;12763;55.802;37.404;2023-06-14T04:28:41;99889.00;;;20.37;54.03
24620;BME280;12763;55.802;37.404;2023-06-14T04:31:08;99890.44;;;20.55;53.12
24620;BME280;12763;55.802;37.404;2023-06-14T04:33:37;99884.91;;;20.65;52.74
24620;BME280;12763;55.802;37.404;2023-06-14T04:36:10;99888.81;;;20.74;51.93
24620;BME280;12763;55.802;37.404;2023-06-14T04:38:43;99883.81;;;20.76;51.91
24620;BME280;12763;55.802;37.404;2023-06-14T04:41:12;99889.97;;;20.88;51.32
24620;BME280;12763;55.802;37.404;2023-06-14T04:43:39;99894.19;;;20.91;51.02
24620;BME280;12763;55.802;37.404;2023-06-14T04:46:07;99897.84;;;20.96;50.59
24620;BME280;12763;55.802;37.404;2023-06-14T04:48:39;99900.69;;;21.06;50.14
24620;BME280;12763;55.802;37.404;2023-06-14T04:51:10;99894.81;;;21.08;49.73
24620;BME280;12763;55.802;37.404;2023-06-14T04:53:36;99894.56;;;21.10;49.55
24620;BME280;12763;55.802;37.404;2023-06-14T04:56:04;99897.91;;;21.17;49.12
24620;BME280;12763;55.802;37.404;2023-06-14T04:58:31;99890.34;;;21.22;48.95
24620;BME280;12763;55.802;37.404;2023-06-14T05:00:59;99881.06;;;21.27;48.71
24620;BME280;12763;55.802;37.404;2023-06-14T05:03:26;99885.59;;;21.23;48.51
24620;BME280;12763;55.802;37.404;2023-06-14T05:05:53;99892.88;;;21.44;47.97
24620;BME280;12763;55.802;37.404;2023-06-14T05:08:23;99885.28;;;21.54;47.50
24620;BME280;12763;55.802;37.404;2023-06-14T05:10:50;99890.59;;;21.66;46.77
24620;BME280;12763;55.802;37.404;2023-06-14T05:13:17;99895.66;;;21.74;46.76
24620;BME280;12763;55.802;37.404;2023-06-14T05:15:45;99897.34;;;21.80;46.73
24620;BME280;12763;55.802;37.404;2023-06-14T05:18:11;99891.72;;;21.80;46.29
24620;BME280;12763;55.802;37.404;2023-06-14T05:20:39;99890.03;;;21.79;46.04
24620;BME280;12763;55.802;37.404;2023-06-14T05:23:08;99890.91;;;21.64;45.94
24620;BME280;12763;55.802;37.404;2023-06-14T05:25:34;99889.75;;;21.86;45.61
24620;BME280;12763;55.802;37.404;2023-06-14T05:28:00;99888.91;;;22.00;45.08
24620;BME280;12763;55.802;37.404;2023-06-14T05:30:25;99882.13;;;22.11;45.21
24620;BME280;12763;55.802;37.404;2023-06-14T05:32:52;99888.81;;;22.20;44.69
24620;BME280;12763;55.802;37.404;2023-06-14T05:35:18;99890.59;;;21.96;44.69
24620;BME280;12763;55.802;37.404;2023-06-14T05:37:44;99884.97;;;22.06;44.58
24620;BME280;12763;55.802;37.404;2023-06-14T05:40:10;99884.34;;;22.19;44.25
24620;BME280;12763;55.802;37.404;2023-06-14T05:42:36;99893.38;;;22.11;44.59
24620;BME280;12763;55.802;37.404;2023-06-14T05:45:02;99882.16;;;21.96;44.23
24620;BME280;12763;55.802;37.404;2023-06-14T05:47:29;99878.22;;;22.02;43.76
24620;BME280;12763;55.802;37.404;2023-06-14T05:49:55;99878.72;;;22.19;43.63
24620;BME280;12763;55.802;37.404;2023-06-14T05:52:21;99882.06;;;22.27;43.41
24620;BME280;12763;55.802;37.404;2023-06-14T05:54:47;99884.81;;;22.42;42.78
24620;BME280;12763;55.802;37.404;2023-06-14T05:57:13;99898.28;;;22.50;42.52
24620;BME280;12763;55.802;37.404;2023-06-14T05:59:39;99896.03;;;22.47;42.33
24620;BME280;12763;55.802;37.404;2023-06-14T06:02:05;99900.06;;;22.26;42.40
24620;BME280;12763;55.802;37.404;2023-06-14T06:04:31;99897.22;;;22.31;42.41
24620;BME280;12763;55.802;37.404;2023-06-14T06:06:57;99903.13;;;22.34;42.24
24620;BME280;12763;55.802;37.404;2023-06-14T06:09:23;99897.19;;;22.41;41.96
24620;BME280;12763;55.802;37.404;2023-06-14T06:11:50;99896.00;;;22.52;41.83
24620;BME280;12763;55.802;37.404;2023-06-14T06:14:16;99882.47;;;22.69;41.42
24620;BME280;12763;55.802;37.404;2023-06-14T06:16:42;99893.63;;;23.23;40.36
24620;BME280;12763;55.802;37.404;2023-06-14T06:19:08;99895.44;;;23.48;40.12
24620;BME280;12763;55.802;37.404;2023-06-14T06:21:33;99897.03;;;23.59;39.55
24620;BME280;12763;55.802;37.404;2023-06-14T06:23:59;99894.78;;;23.61;38.97
24620;BME280;12763;55.802;37.404;2023-06-14T06:26:29;99890.41;;;23.45;39.32
24620;BME280;12763;55.802;37.404;2023-06-14T06:28:55;99891.09;;;23.60;38.74
24620;BME280;12763;55.802;37.404;2023-06-14T06:31:22;99893.03;;;23.65;39.06
24620;BME280;12763;55.802;37.404;2023-06-14T06:33:49;99889.47;;;23.54;38.45
24620;BME280;12763;55.802;37.404;2023-06-14T06:36:15;99885.63;;;23.74;38.16
24620;BME280;12763;55.802;37.404;2023-06-14T06:38:41;99876.91;;;23.70;37.69
24620;BME280;12763;55.802;37.404;2023-06-14T06:41:07;99886.06;;;23.86;37.10
24620;BME280;12763;55.802;37.404;2023-06-14T06:43:33;99888.31;;;23.84;37.02
24620;BME280;12763;55.802;37.404;2023-06-14T06:46:01;99887.13;;;23.66;37.39
24620;BME280;12763;55.802;37.404;2023-06-14T06:48:27;99885.22;;;23.85;36.81
24620;BME280;12763;55.802;37.404;2023-06-14T06:50:54;99882.00;;;23.97;35.96
24620;BME280;12763;55.802;37.404;2023-06-14T06:53:20;99874.34;;;23.74;36.21
24620;BME280;12763;55.802;37.404;2023-06-14T06:55:46;99871.81;;;24.01;35.71
24620;BME280;12763;55.802;37.404;2023-06-14T06:58:14;99892.84;;;23.85;36.02
24620;BME280;12763;55.802;37.404;2023-06-14T07:00:40;99883.06;;;24.01;35.73
24620;BME280;12763;55.802;37.404;2023-06-14T07:03:06;99886.31;;;24.18;35.83
24620;BME280;12763;55.802;37.404;2023-06-14T07:05:32;99876.53;;;24.34;35.81
24620;BME280;12763;55.802;37.404;2023-06-14T07:07:58;99878.81;;;24.32;35.84
24620;BME280;12763;55.802;37.404;2023-06-14T07:10:24;99874.63;;;24.30;35.96
24620;BME280;12763;55.802;37.404;2023-06-14T07:12:50;99879.41;;;24.29;35.74
24620;BME280;12763;55.802;37.404;2023-06-14T07:15:16;99873.88;;;24.19;35.33
24620;BME280;12763;55.802;37.404;2023-06-14T07:17:42;99878.44;;;24.15;35.56
24620;BME280;12763;55.802;37.404;2023-06-14T07:20:08;99883.72;;;24.22;35.31
24620;BME280;12763;55.802;37.404;2023-06-14T07:22:42;99872.00;;;24.33;34.95
24620;BME280;12763;55.802;37.404;2023-06-14T07:25:12;99873.88;;;24.43;35.15
24620;BME280;12763;55.802;37.404;2023-06-14T07:27:42;99868.66;;;24.31;35.24
24620;BME280;12763;55.802;37.404;2023-06-14T07:30:08;99865.19;;;24.58;35.26
24620;BME280;12763;55.802;37.404;2023-06-14T07:32:35;99857.97;;;24.71;35.08
24620;BME280;12763;55.802;37.404;2023-06-14T07:35:01;99860.47;;;24.72;35.21
24620;BME280;12763;55.802;37.404;2023-06-14T07:37:29;99856.03;;;24.90;34.91
24620;BME280;12763;55.802;37.404;2023-06-14T07:39:56;99862.78;;;24.70;35.15
24620;BME280;12763;55.802;37.404;2023-06-14T07:42:22;99865.47;;;24.80;34.53
24620;BME280;12763;55.802;37.404;2023-06-14T07:44:48;99872.13;;;25.08;34.30
24620;BME280;12763;55.802;37.404;2023-06-14T07:47:16;99873.72;;;25.14;33.92
24620;BME280;12763;55.802;37.404;2023-06-14T07:49:41;99870.66;;;25.29;33.92
24620;BME280;12763;55.802;37.404;2023-06-14T07:52:07;99863.41;;;25.23;33.76
24620;BME280;12763;55.802;37.404;2023-06-14T07:54:33;99856.19;;;24.80;33.50
24620;BME280;12763;55.802;37.404;2023-06-14T07:56:59;99866.63;;;24.55;34.23
24620;BME280;12763;55.802;37.404;2023-06-14T07:59:26;99866.91;;;24.78;34.32
24620;BME280;12763;55.802;37.404;2023-06-14T08:01:52;99862.53;;;24.90;34.14
24620;BME280;12763;55.802;37.404;2023-06-14T08:04:18;99861.50;;;25.00;33.47
24620;BME280;12763;55.802;37.404;2023-06-14T08:06:44;99858.09;;;25.03;34.03
24620;BME280;12763;55.802;37.404;2023-06-14T08:09:12;99867.47;;;25.17;33.56
24620;BME280;12763;55.802;37.404;2023-06-14T08:11:38;99856.78;;;24.77;33.94
24620;BME280;12763;55.802;37.404;2023-06-14T08:14:04;99861.38;;;25.10;34.20
24620;BME280;12763;55.802;37.404;2023-06-14T08:16:30;99868.78;;;25.38;33.48
24620;BME280;12763;55.802;37.404;2023-06-14T08:18:56;99868.19;;;25.41;33.68
24620;BME280;12763;55.802;37.404;2023-06-14T08:21:22;99862.94;;;25.53;33.38
24620;BME280;12763;55.802;37.404;2023-06-14T08:23:49;99868.78;;;25.38;33.46
24620;BME280;12763;55.802;37.404;2023-06-14T08:26:19;99858.66;;;25.37;33.43
24620;BME280;12763;55.802;37.404;2023-06-14T08:28:45;99873.56;;;25.24;33.35
24620;BME280;12763;55.802;37.404;2023-06-14T08:31:11;99870.19;;;25.22;33.79
24620;BME280;12763;55.802;37.404;2023-06-14T08:33:38;99867.53;;;25.31;33.05
24620;BME280;12763;55.802;37.404;2023-06-14T08:36:09;99861.91;;;25.44;33.49
24620;BME280;12763;55.802;37.404;2023-06-14T08:38:36;99865.03;;;25.61;33.18
24620;BME280;12763;55.802;37.404;2023-06-14T08:41:04;99860.16;;;25.81;33.32
24620;BME280;12763;55.802;37.404;2023-06-14T08:43:32;99854.09;;;25.74;33.35
24620;BME280;12763;55.802;37.404;2023-06-14T08:46:01;99851.78;;;25.76;33.76
24620;BME280;12763;55.802;37.404;2023-06-14T08:48:28;99854.72;;;25.71;33.58
24620;BME280;12763;55.802;37.404;2023-06-14T08:50:59;99855.13;;;25.78;33.80
24620;BME280;12763;55.802;37.404;2023-06-14T08:53:31;99852.81;;;25.66;33.88
24620;BME280;12763;55.802;37.404;2023-06-14T08:56:02;99846.34;;;25.65;33.73
24620;BME280;12763;55.802;37.404;2023-06-14T08:58:31;99849.47;;;25.64;33.59
24620;BME280;12763;55.802;37.404;2023-06-14T09:01:01;99840.84;;;25.55;32.83
24620;BME280;12763;55.802;37.404;2023-06-14T09:03:27;99839.19;;;25.54;32.89
24620;BME280;12763;55.802;37.404;2023-06-14T09:05:57;99850.19;;;25.69;32.39
24620;BME280;12763;55.802;37.404;2023-06-14T09:08:28;99840.44;;;25.48;32.71
24620;BME280;12763;55.802;37.404;2023-06-14T09:10:57;99842.09;;;25.49;32.96
24620;BME280;12763;55.802;37.404;2023-06-14T09:13:23;99840.44;;;25.48;33.56
24620;BME280;12763;55.802;37.404;2023-06-14T09:15:50;99829.81;;;25.73;33.17
24620;BME280;12763;55.802;37.404;2023-06-14T09:18:17;99828.78;;;25.82;33.11
24620;BME280;12763;55.802;37.404;2023-06-14T09:20:46;99826.03;;;25.91;33.21
24620;BME280;12763;55.802;37.404;2023-06-14T09:23:20;99830.56;;;26.05;33.01
24620;BME280;12763;55.802;37.404;2023-06-14T09:25:47;99821.38;;;26.13;33.01
24620;BME280;12763;55.802;37.404;2023-06-14T09:28:13;99826.50;;;26.52;32.74
24620;BME280;12763;55.802;37.404;2023-06-14T09:30:40;99823.00;;;26.82;32.09
24620;BME280;12763;55.802;37.404;2023-06-14T09:33:06;99827.25;;;26.94;31.94
24620;BME280;12763;55.802;37.404;2023-06-14T09:35:32;99826.00;;;27.22;31.57
24620;BME280;12763;55.802;37.404;2023-06-14T09:37:58;99832.03;;;27.29;31.39
24620;BME280;12763;55.802;37.404;2023-06-14T09:40:24;99823.91;;;27.50;30.79
24620;BME280;12763;55.802;37.404;2023-06-14T09:42:51;99816.06;;;27.77;30.81
24620;BME280;12763;55.802;37.404;2023-06-14T09:45:17;99819.50;;;27.96;30.40
24620;BME280;12763;55.802;37.404;2023-06-14T09:47:50;99819.31;;;27.93;29.91
24620;BME280;12763;55.802;37.404;2023-06-14T09:50:16;99820.00;;;27.98;30.11
24620;BME280;12763;55.802;37.404;2023-06-14T09:52:44;99810.56;;;28.12;29.79
24620;BME280;12763;55.802;37.404;2023-06-14T09:55:13;99822.09;;;27.84;30.08
24620;BME280;12763;55.802;37.404;2023-06-14T09:57:42;99817.63;;;28.23;29.61
24620;BME280;12763;55.802;37.404;2023-06-14T10:00:10;99815.63;;;28.23;29.25
24620;BME280;12763;55.802;37.404;2023-06-14T10:02:39;99806.53;;;28.04;29.31
24620;BME280;12763;55.802;37.404;2023-06-14T10:05:09;99812.44;;;27.85;29.76
24620;BME280;12763;55.802;37.404;2023-06-14T10:07:56;99809.03;;;28.53;30.16
24620;BME280;12763;55.802;37.404;2023-06-14T10:10:25;99795.91;;;28.83;29.16
24620;BME280;12763;55.802;37.404;2023-06-14T10:12:51;99792.06;;;29.31;28.61
24620;BME280;12763;55.802;37.404;2023-06-14T10:15:30;99798.75;;;29.09;28.41
24620;BME280;12763;55.802;37.404;2023-06-14T10:18:08;99788.56;;;28.91;28.38
24620;BME280;12763;55.802;37.404;2023-06-14T10:21:03;99791.56;;;29.03;27.55
24620;BME280;12763;55.802;37.404;2023-06-14T10:23:32;99789.69;;;29.50;27.70
24620;BME280;12763;55.802;37.404;2023-06-14T10:26:00;99785.56;;;28.87;28.27
24620;BME280;12763;55.802;37.404;2023-06-14T10:28:26;99783.38;;;29.01;27.89
24620;BME280;12763;55.802;37.404;2023-06-14T10:33:55;99784.94;;;30.26;27.17
24620;BME280;12763;55.802;37.404;2023-06-14T10:36:29;99785.41;;;30.37;26.65
24620;BME280;12763;55.802;37.404;2023-06-14T10:39:12;99768.66;;;29.97;27.18
24620;BME280;12763;55.802;37.404;2023-06-14T10:41:41;99783.56;;;30.61;27.37
24620;BME280;12763;55.802;37.404;2023-06-14T10:46:40;99769.06;;;31.37;26.16
24620;BME280;12763;55.802;37.404;2023-06-14T10:49:06;99777.25;;;31.71;26.06
24620;BME280;12763;55.802;37.404;2023-06-14T10:51:41;99766.66;;;32.17;24.94
24620;BME280;12763;55.802;37.404;2023-06-14T10:54:13;99766.28;;;32.30;25.22
24620;BME280;12763;55.802;37.404;2023-06-14T10:56:46;99759.97;;;32.13;24.46
24620;BME280;12763;55.802;37.404;2023-06-14T10:59:13;99762.66;;;31.73;25.14
24620;BME280;12763;55.802;37.404;2023-06-14T11:01:52;99762.13;;;32.16;25.12
24620;BME280;12763;55.802;37.404;2023-06-14T11:04:21;99755.81;;;32.59;24.54
24620;BME280;12763;55.802;37.404;2023-06-14T11:06:50;99756.41;;;32.16;24.33
24620;BME280;12763;55.802;37.404;2023-06-14T11:11:58;99747.94;;;31.95;24.27
24620;BME280;12763;55.802;37.404;2023-06-14T11:14:30;99755.59;;;32.03;24.75
24620;BME280;12763;55.802;37.404;2023-06-14T11:16:56;99765.84;;;31.71;25.31
24620;BME280;12763;55.802;37.404;2023-06-14T11:19:22;99761.75;;;31.60;24.95
24620;BME280;12763;55.802;37.404;2023-06-14T11:21:48;99750.28;;;31.93;24.63
24620;BME280;12763;55.802;37.404;2023-06-14T11:24:14;99751.66;;;32.56;24.15
24620;BME280;12763;55.802;37.404;2023-06-14T11:26:41;99752.78;;;32.79;24.57
24620;BME280;12763;55.802;37.404;2023-06-14T11:29:07;99754.75;;;33.58;23.86
24620;BME280;12763;55.802;37.404;2023-06-14T11:31:32;99756.47;;;33.91;23.88
24620;BME280;12763;55.802;37.404;2023-06-14T11:33:59;99754.91;;;33.93;23.17
24620;BME280;12763;55.802;37.404;2023-06-14T11:36:30;99754.63;;;33.98;22.66
24620;BME280;12763;55.802;37.404;2023-06-14T11:39:03;99745.88;;;34.22;22.03
24620;BME280;12763;55.802;37.404;2023-06-14T11:41:40;99748.50;;;34.00;22.30
24620;BME280;12763;55.802;37.404;2023-06-14T11:44:06;99736.25;;;33.99;22.31
24620;BME280;12763;55.802;37.404;2023-06-14T11:46:33;99735.13;;;34.04;22.66
24620;BME280;12763;55.802;37.404;2023-06-14T11:48:59;99735.56;;;33.59;22.51
24620;BME280;12763;55.802;37.404;2023-06-14T11:51:32;99737.31;;;33.20;23.27
24620;BME280;12763;55.802;37.404;2023-06-14T11:53:59;99736.88;;;33.34;23.01
24620;BME280;12763;55.802;37.404;2023-06-14T11:56:26;99731.22;;;33.49;22.84
24620;BME280;12763;55.802;37.404;2023-06-14T11:58:52;99735.69;;;33.07;23.06
24620;BME280;12763;55.802;37.404;2023-06-14T12:01:22;99732.44;;;32.81;23.16
24620;BME280;12763;55.802;37.404;2023-06-14T12:03:49;99744.06;;;32.88;23.05
24620;BME280;12763;55.802;37.404;2023-06-14T12:06:16;99732.25;;;33.29;22.85
24620;BME280;12763;55.802;37.404;2023-06-14T12:08:50;99733.09;;;32.90;23.27
24620;BME280;12763;55.802;37.404;2023-06-14T12:11:16;99727.19;;;33.97;22.67
24620;BME280;12763;55.802;37.404;2023-06-14T12:13:43;99732.47;;;34.77;21.88
24620;BME280;12763;55.802;37.404;2023-06-14T12:16:09;99727.97;;;34.95;21.42
24620;BME280;12763;55.802;37.404;2023-06-14T12:18:38;99714.34;;;33.76;22.56
24620;BME280;12763;55.802;37.404;2023-06-14T12:21:06;99719.53;;;33.70;22.71
24620;BME280;12763;55.802;37.404;2023-06-14T12:23:58;99726.91;;;34.34;22.07
24620;BME280;12763;55.802;37.404;2023-06-14T12:26:24;99725.91;;;34.76;22.06
24620;BME280;12763;55.802;37.404;2023-06-14T12:28:51;99725.09;;;34.95;22.02
24620;BME280;12763;55.802;37.404;2023-06-14T12:31:17;99721.84;;;35.54;21.40
24620;BME280;12763;55.802;37.404;2023-06-14T12:33:46;99712.47;;;36.25;20.90
24620;BME280;12763;55.802;37.404;2023-06-14T12:36:14;99713.34;;;36.52;20.50
24620;BME280;12763;55.802;37.404;2023-06-14T12:38:40;99706.47;;;36.60;20.35
24620;BME280;12763;55.802;37.404;2023-06-14T12:41:07;99713.53;;;36.66;20.47
24620;BME280;12763;55.802;37.404;2023-06-14T12:43:33;99709.44;;;36.41;20.58
24620;BME280;12763;55.802;37.404;2023-06-14T12:46:00;99704.25;;;36.24;20.76
24620;BME280;12763;55.802;37.404;2023-06-14T12:48:26;99699.44;;;35.21;21.12
24620;BME280;12763;55.802;37.404;2023-06-14T12:50:57;99700.75;;;35.24;20.73
24620;BME280;12763;55.802;37.404;2023-06-14T12:53:23;99706.31;;;35.17;21.13
24620;BME280;12763;55.802;37.404;2023-06-14T12:55:50;99695.81;;;34.86;20.80
24620;BME280;12763;55.802;37.404;2023-06-14T12:58:16;99684.00;;;35.07;21.10
24620;BME280;12763;55.802;37.404;2023-06-14T13:00:46;99687.69;;;34.53;21.53
24620;BME280;12763;55.802;37.404;2023-06-14T13:03:12;99695.59;;;34.41;21.66
24620;BME280;12763;55.802;37.404;2023-06-14T13:05:38;99696.69;;;35.67;20.64